sensor_id;sensor_type;location;lat;lon;timestamp;P1;durP1;ratioP1;P2;durP2;ratioP2
64936;SDS011;51452;47.698;19.050;2023-02-18T00:02:08;6.25;;;2.90;;
64936;SDS011;51452;47.698;19.050;2023-02-18T00:04:33;9.80;;;3.30;;
64936;SDS011;51452;47.698;19.050;2023-02-18T00:06:58;5.95;;;2.72;;
64936;SDS011;51452;47.698;19.050;2023-02-18T00:09:24;4.55;;;2.88;;
64936;SDS011;51452;47.698;19.050;2023-02-18T00:11:50;4.05;;;2.60;;
64936;SDS011;51452;47.698;19.050;2023-02-18T00:14:15;5.90;;;3.00;;
64936;SDS011;51452;47.698;19.050;2023-02-18T00:16:42;6.20;;;2.88;;
64936;SDS011;51452;47.698;19.050;2023-02-18T00:19:10;6.22;;;2.47;;
64936;SDS011;51452;47.698;19.050;2023-02-18T00:21:37;4.43;;;2.00;;
64936;SDS011;51452;47.698;19.050;2023-02-18T00:24:03;5.25;;;2.22;;
64936;SDS011;51452;47.698;19.050;2023-02-18T00:26:29;6.22;;;2.17;;
64936;SDS011;51452;47.698;19.050;2023-02-18T00:28:55;3.72;;;2.13;;
64936;SDS011;51452;47.698;19.050;2023-02-18T00:31:22;3.78;;;2.10;;
64936;SDS011;51452;47.698;19.050;2023-02-18T00:33:49;4.40;;;2.10;;
64936;SDS011;51452;47.698;19.050;2023-02-18T00:36:15;4.20;;;2.10;;
64936;SDS011;51452;47.698;19.050;2023-02-18T00:38:43;4.20;;;2.05;;
64936;SDS011;51452;47.698;19.050;2023-02-18T00:41:13;4.65;;;2.10;;
64936;SDS011;51452;47.698;19.050;2023-02-18T00:43:39;3.65;;;1.80;;
64936;SDS011;51452;47.698;19.050;2023-02-18T00:46:04;4.82;;;2.42;;
64936;SDS011;51452;47.698;19.050;2023-02-18T00:48:30;3.78;;;1.90;;
64936;SDS011;51452;47.698;19.050;2023-02-18T00:50:56;3.25;;;1.60;;
64936;SDS011;51452;47.698;19.050;2023-02-18T00:53:21;4.15;;;1.90;;
64936;SDS011;51452;47.698;19.050;2023-02-18T00:55:47;3.10;;;1.50;;
64936;SDS011;51452;47.698;19.050;2023-02-18T00:58:13;6.93;;;1.65;;
64936;SDS011;51452;47.698;19.050;2023-02-18T01:00:39;5.10;;;1.65;;
64936;SDS011;51452;47.698;19.050;2023-02-18T01:03:05;4.00;;;1.73;;
64936;SDS011;51452;47.698;19.050;2023-02-18T01:05:34;2.97;;;1.30;;
64936;SDS011;51452;47.698;19.050;2023-02-18T01:08:00;5.88;;;1.90;;
64936;SDS011;51452;47.698;19.050;2023-02-18T01:10:25;6.70;;;1.50;;
64936;SDS011;51452;47.698;19.050;2023-02-18T01:12:51;3.28;;;1.42;;
64936;SDS011;51452;47.698;19.050;2023-02-18T01:15:16;2.17;;;1.55;;
64936;SDS011;51452;47.698;19.050;2023-02-18T01:17:42;3.15;;;1.50;;
64936;SDS011;51452;47.698;19.050;2023-02-18T01:20:09;4.13;;;1.52;;
64936;SDS011;51452;47.698;19.050;2023-02-18T01:22:35;3.80;;;1.50;;
64936;SDS011;51452;47.698;19.050;2023-02-18T01:25:01;2.58;;;1.38;;
64936;SDS011;51452;47.698;19.050;2023-02-18T01:27:27;2.25;;;1.10;;
64936;SDS011;51452;47.698;19.050;2023-02-18T01:29:53;1.95;;;1.30;;
64936;SDS011;51452;47.698;19.050;2023-02-18T01:32:18;2.95;;;1.10;;
64936;SDS011;51452;47.698;19.050;2023-02-18T01:34:44;3.13;;;1.30;;
64936;SDS011;51452;47.698;19.050;2023-02-18T01:37:10;2.20;;;1.40;;
64936;SDS011;51452;47.698;19.050;2023-02-18T01:39:35;1.63;;;1.20;;
64936;SDS011;51452;47.698;19.050;2023-02-18T01:42:01;2.58;;;1.27;;
64936;SDS011;51452;47.698;19.050;2023-02-18T01:44:27;1.73;;;1.10;;
64936;SDS011;51452;47.698;19.050;2023-02-18T01:46:53;2.42;;;1.20;;
64936;SDS011;51452;47.698;19.050;2023-02-18T01:49:26;3.13;;;1.30;;
64936;SDS011;51452;47.698;19.050;2023-02-18T01:51:56;1.75;;;0.95;;
64936;SDS011;51452;47.698;19.050;2023-02-18T01:57:04;2.00;;;1.27;;
64936;SDS011;51452;47.698;19.050;2023-02-18T01:59:37;4.85;;;1.42;;
64936;SDS011;51452;47.698;19.050;2023-02-18T02:02:06;2.40;;;1.10;;
64936;SDS011;51452;47.698;19.050;2023-02-18T02:04:35;1.95;;;1.13;;
64936;SDS011;51452;47.698;19.050;2023-02-18T02:07:00;2.75;;;1.25;;
64936;SDS011;51452;47.698;19.050;2023-02-18T02:09:26;3.70;;;1.10;;
64936;SDS011;51452;47.698;19.050;2023-02-18T02:14:50;1.73;;;1.33;;
64936;SDS011;51452;47.698;19.050;2023-02-18T02:17:34;3.28;;;1.20;;
64936;SDS011;51452;47.698;19.050;2023-02-18T02:22:50;3.38;;;1.20;;
64936;SDS011;51452;47.698;19.050;2023-02-18T02:28:14;2.45;;;1.10;;
64936;SDS011;51452;47.698;19.050;2023-02-18T02:38:48;1.42;;;1.00;;
64936;SDS011;51452;47.698;19.050;2023-02-18T02:41:33;3.65;;;1.00;;
64936;SDS011;51452;47.698;19.050;2023-02-18T02:44:13;2.03;;;1.20;;
64936;SDS011;51452;47.698;19.050;2023-02-18T02:46:46;2.88;;;1.20;;
64936;SDS011;51452;47.698;19.050;2023-02-18T02:51:55;2.75;;;1.02;;
64936;SDS011;51452;47.698;19.050;2023-02-18T02:54:25;2.22;;;1.00;;
64936;SDS011;51452;47.698;19.050;2023-02-18T02:59:31;3.03;;;1.20;;
64936;SDS011;51452;47.698;19.050;2023-02-18T03:21:43;2.17;;;1.05;;
64936;SDS011;51452;47.698;19.050;2023-02-18T03:24:17;1.65;;;1.10;;
64936;SDS011;51452;47.698;19.050;2023-02-18T03:26:49;3.00;;;0.95;;
64936;SDS011;51452;47.698;19.050;2023-02-18T03:29:18;3.17;;;1.00;;
64936;SDS011;51452;47.698;19.050;2023-02-18T03:31:45;1.63;;;1.00;;
64936;SDS011;51452;47.698;19.050;2023-02-18T03:34:17;2.13;;;1.23;;
64936;SDS011;51452;47.698;19.050;2023-02-18T03:36:49;1.92;;;1.00;;
64936;SDS011;51452;47.698;19.050;2023-02-18T03:39:15;2.13;;;1.02;;
64936;SDS011;51452;47.698;19.050;2023-02-18T03:41:43;2.13;;;0.93;;
64936;SDS011;51452;47.698;19.050;2023-02-18T03:44:09;1.50;;;1.00;;
64936;SDS011;51452;47.698;19.050;2023-02-18T03:46:36;2.88;;;0.90;;
64936;SDS011;51452;47.698;19.050;2023-02-18T03:49:03;2.17;;;1.00;;
64936;SDS011;51452;47.698;19.050;2023-02-18T03:51:30;1.85;;;1.08;;
64936;SDS011;51452;47.698;19.050;2023-02-18T03:53:55;1.48;;;1.00;;
64936;SDS011;51452;47.698;19.050;2023-02-18T03:56:21;1.80;;;1.17;;
64936;SDS011;51452;47.698;19.050;2023-02-18T03:58:46;2.22;;;1.08;;
64936;SDS011;51452;47.698;19.050;2023-02-18T04:01:12;2.75;;;1.00;;
64936;SDS011;51452;47.698;19.050;2023-02-18T04:03:38;1.90;;;1.00;;
64936;SDS011;51452;47.698;19.050;2023-02-18T04:06:04;1.52;;;1.05;;
64936;SDS011;51452;47.698;19.050;2023-02-18T04:08:29;1.60;;;0.80;;
64936;SDS011;51452;47.698;19.050;2023-02-18T04:10:55;2.00;;;1.15;;
64936;SDS011;51452;47.698;19.050;2023-02-18T04:13:20;2.35;;;1.27;;
64936;SDS011;51452;47.698;19.050;2023-02-18T04:15:48;1.40;;;1.00;;
64936;SDS011;51452;47.698;19.050;2023-02-18T04:18:14;2.22;;;1.20;;
64936;SDS011;51452;47.698;19.050;2023-02-18T04:20:40;2.25;;;1.20;;
64936;SDS011;51452;47.698;19.050;2023-02-18T04:23:05;1.40;;;0.98;;
64936;SDS011;51452;47.698;19.050;2023-02-18T04:25:31;1.67;;;1.00;;
64936;SDS011;51452;47.698;19.050;2023-02-18T04:27:57;1.50;;;1.00;;
64936;SDS011;51452;47.698;19.050;2023-02-18T04:30:22;2.47;;;1.10;;
64936;SDS011;51452;47.698;19.050;2023-02-18T04:32:48;1.92;;;1.10;;
64936;SDS011;51452;47.698;19.050;2023-02-18T04:35:14;1.08;;;0.82;;
64936;SDS011;51452;47.698;19.050;2023-02-18T04:37:39;2.45;;;1.20;;
64936;SDS011;51452;47.698;19.050;2023-02-18T04:40:05;1.10;;;0.90;;
64936;SDS011;51452;47.698;19.050;2023-02-18T04:42:31;2.10;;;1.00;;
64936;SDS011;51452;47.698;19.050;2023-02-18T04:44:56;1.30;;;0.90;;
64936;SDS011;51452;47.698;19.050;2023-02-18T04:47:22;1.55;;;1.02;;
64936;SDS011;51452;47.698;19.050;2023-02-18T04:49:47;3.22;;;1.10;;
64936;SDS011;51452;47.698;19.050;2023-02-18T04:52:13;1.85;;;1.10;;
64936;SDS011;51452;47.698;19.050;2023-02-18T04:54:38;1.30;;;0.90;;
64936;SDS011;51452;47.698;19.050;2023-02-18T04:57:04;2.17;;;1.00;;
64936;SDS011;51452;47.698;19.050;2023-02-18T04:59:29;2.22;;;1.00;;
64936;SDS011;51452;47.698;19.050;2023-02-18T05:01:55;1.27;;;0.90;;
64936;SDS011;51452;47.698;19.050;2023-02-18T05:04:20;2.67;;;0.95;;
64936;SDS011;51452;47.698;19.050;2023-02-18T05:06:46;1.17;;;0.88;;
64936;SDS011;51452;47.698;19.050;2023-02-18T05:09:11;1.30;;;0.82;;
64936;SDS011;51452;47.698;19.050;2023-02-18T05:11:37;1.20;;;0.85;;
64936;SDS011;51452;47.698;19.050;2023-02-18T05:14:03;1.70;;;1.00;;
64936;SDS011;51452;47.698;19.050;2023-02-18T05:16:28;2.85;;;1.10;;
64936;SDS011;51452;47.698;19.050;2023-02-18T05:18:54;1.75;;;1.00;;
64936;SDS011;51452;47.698;19.050;2023-02-18T05:21:19;1.10;;;0.70;;
64936;SDS011;51452;47.698;19.050;2023-02-18T05:23:45;1.20;;;1.00;;
64936;SDS011;51452;47.698;19.050;2023-02-18T05:26:10;1.90;;;0.93;;
64936;SDS011;51452;47.698;19.050;2023-02-18T05:28:35;1.42;;;0.85;;
64936;SDS011;51452;47.698;19.050;2023-02-18T05:31:01;0.85;;;0.70;;
64936;SDS011;51452;47.698;19.050;2023-02-18T05:33:26;1.88;;;0.80;;
64936;SDS011;51452;47.698;19.050;2023-02-18T05:35:52;1.25;;;0.70;;
64936;SDS011;51452;47.698;19.050;2023-02-18T05:38:17;1.27;;;0.80;;
64936;SDS011;51452;47.698;19.050;2023-02-18T05:40:43;1.48;;;0.90;;
64936;SDS011;51452;47.698;19.050;2023-02-18T05:43:08;1.45;;;0.90;;
64936;SDS011;51452;47.698;19.050;2023-02-18T05:45:34;1.25;;;0.80;;
64936;SDS011;51452;47.698;19.050;2023-02-18T05:47:59;2.70;;;0.90;;
64936;SDS011;51452;47.698;19.050;2023-02-18T05:50:24;1.38;;;1.00;;
64936;SDS011;51452;47.698;19.050;2023-02-18T05:52:50;1.80;;;1.00;;
64936;SDS011;51452;47.698;19.050;2023-02-18T05:55:15;2.67;;;0.93;;
64936;SDS011;51452;47.698;19.050;2023-02-18T05:57:41;1.85;;;1.20;;
64936;SDS011;51452;47.698;19.050;2023-02-18T06:00:06;2.53;;;1.05;;
64936;SDS011;51452;47.698;19.050;2023-02-18T06:02:35;2.03;;;0.90;;
64936;SDS011;51452;47.698;19.050;2023-02-18T06:05:01;1.83;;;1.15;;
64936;SDS011;51452;47.698;19.050;2023-02-18T06:07:27;2.75;;;1.10;;
64936;SDS011;51452;47.698;19.050;2023-02-18T06:09:53;3.22;;;1.30;;
64936;SDS011;51452;47.698;19.050;2023-02-18T06:12:18;1.80;;;1.20;;
64936;SDS011;51452;47.698;19.050;2023-02-18T06:14:44;2.67;;;1.00;;
64936;SDS011;51452;47.698;19.050;2023-02-18T06:17:10;1.75;;;1.10;;
64936;SDS011;51452;47.698;19.050;2023-02-18T06:19:36;4.40;;;1.38;;
64936;SDS011;51452;47.698;19.050;2023-02-18T06:22:02;2.30;;;1.10;;
64936;SDS011;51452;47.698;19.050;2023-02-18T06:24:28;3.00;;;1.20;;
64936;SDS011;51452;47.698;19.050;2023-02-18T06:26:53;2.42;;;1.42;;
64936;SDS011;51452;47.698;19.050;2023-02-18T06:29:18;3.03;;;1.33;;
64936;SDS011;51452;47.698;19.050;2023-02-18T06:31:44;2.53;;;1.40;;
64936;SDS011;51452;47.698;19.050;2023-02-18T06:34:09;1.90;;;1.20;;
64936;SDS011;51452;47.698;19.050;2023-02-18T06:36:35;2.00;;;1.30;;
64936;SDS011;51452;47.698;19.050;2023-02-18T06:39:03;3.22;;;1.25;;
64936;SDS011;51452;47.698;19.050;2023-02-18T06:41:29;2.72;;;0.95;;
64936;SDS011;51452;47.698;19.050;2023-02-18T06:43:55;2.33;;;1.20;;
64936;SDS011;51452;47.698;19.050;2023-02-18T06:46:20;2.15;;;1.30;;
64936;SDS011;51452;47.698;19.050;2023-02-18T06:48:45;3.47;;;1.33;;
64936;SDS011;51452;47.698;19.050;2023-02-18T06:51:11;1.90;;;1.23;;
64936;SDS011;51452;47.698;19.050;2023-02-18T06:53:36;2.10;;;1.10;;
64936;SDS011;51452;47.698;19.050;2023-02-18T06:56:02;2.70;;;0.90;;
64936;SDS011;51452;47.698;19.050;2023-02-18T06:58:27;1.70;;;0.90;;
64936;SDS011;51452;47.698;19.050;2023-02-18T07:00:53;1.33;;;0.90;;
64936;SDS011;51452;47.698;19.050;2023-02-18T07:03:18;1.20;;;0.68;;
64936;SDS011;51452;47.698;19.050;2023-02-18T07:05:44;1.92;;;0.80;;
64936;SDS011;51452;47.698;19.050;2023-02-18T07:08:09;1.15;;;0.73;;
64936;SDS011;51452;47.698;19.050;2023-02-18T07:10:35;1.23;;;0.80;;
64936;SDS011;51452;47.698;19.050;2023-02-18T07:13:00;1.52;;;0.70;;
64936;SDS011;51452;47.698;19.050;2023-02-18T07:15:26;1.85;;;0.80;;
64936;SDS011;51452;47.698;19.050;2023-02-18T07:17:52;1.50;;;0.82;;
64936;SDS011;51452;47.698;19.050;2023-02-18T07:20:21;1.80;;;0.70;;
64936;SDS011;51452;47.698;19.050;2023-02-18T07:22:47;1.48;;;0.90;;
64936;SDS011;51452;47.698;19.050;2023-02-18T07:25:13;1.02;;;0.80;;
64936;SDS011;51452;47.698;19.050;2023-02-18T07:27:38;2.55;;;0.90;;
64936;SDS011;51452;47.698;19.050;2023-02-18T07:30:04;1.65;;;0.80;;
64936;SDS011;51452;47.698;19.050;2023-02-18T07:32:31;4.30;;;0.90;;
64936;SDS011;51452;47.698;19.050;2023-02-18T07:34:56;1.13;;;0.73;;
64936;SDS011;51452;47.698;19.050;2023-02-18T07:37:21;1.20;;;0.73;;
64936;SDS011;51452;47.698;19.050;2023-02-18T07:39:47;2.35;;;1.00;;
64936;SDS011;51452;47.698;19.050;2023-02-18T07:42:12;2.58;;;1.35;;
64936;SDS011;51452;47.698;19.050;2023-02-18T07:44:38;1.90;;;0.90;;
64936;SDS011;51452;47.698;19.050;2023-02-18T07:47:05;1.98;;;1.20;;
64936;SDS011;51452;47.698;19.050;2023-02-18T07:49:32;1.73;;;0.90;;
64936;SDS011;51452;47.698;19.050;2023-02-18T07:51:58;2.88;;;1.33;;
64936;SDS011;51452;47.698;19.050;2023-02-18T07:54:24;1.45;;;0.95;;
64936;SDS011;51452;47.698;19.050;2023-02-18T07:56:50;1.35;;;0.98;;
64936;SDS011;51452;47.698;19.050;2023-02-18T07:59:16;1.85;;;1.10;;
64936;SDS011;51452;47.698;19.050;2023-02-18T08:01:41;1.40;;;1.00;;
64936;SDS011;51452;47.698;19.050;2023-02-18T08:04:07;1.75;;;1.00;;
64936;SDS011;51452;47.698;19.050;2023-02-18T08:06:34;1.55;;;0.90;;
64936;SDS011;51452;47.698;19.050;2023-02-18T08:09:04;1.15;;;0.80;;
64936;SDS011;51452;47.698;19.050;2023-02-18T08:11:30;1.20;;;0.80;;
64936;SDS011;51452;47.698;19.050;2023-02-18T08:13:55;1.50;;;0.80;;
64936;SDS011;51452;47.698;19.050;2023-02-18T08:16:21;1.02;;;0.68;;
64936;SDS011;51452;47.698;19.050;2023-02-18T08:18:47;1.50;;;0.70;;
64936;SDS011;51452;47.698;19.050;2023-02-18T08:21:14;1.08;;;0.75;;
64936;SDS011;51452;47.698;19.050;2023-02-18T08:23:40;1.10;;;0.75;;
64936;SDS011;51452;47.698;19.050;2023-02-18T08:26:06;3.47;;;0.88;;
64936;SDS011;51452;47.698;19.050;2023-02-18T08:28:32;2.05;;;1.00;;
64936;SDS011;51452;47.698;19.050;2023-02-18T08:30:58;1.23;;;0.80;;
64936;SDS011;51452;47.698;19.050;2023-02-18T08:33:23;1.75;;;0.70;;
64936;SDS011;51452;47.698;19.050;2023-02-18T08:35:50;2.75;;;0.80;;
64936;SDS011;51452;47.698;19.050;2023-02-18T08:38:17;1.88;;;0.75;;
64936;SDS011;51452;47.698;19.050;2023-02-18T08:40:43;1.38;;;0.80;;
64936;SDS011;51452;47.698;19.050;2023-02-18T08:43:09;1.42;;;0.90;;
64936;SDS011;51452;47.698;19.050;2023-02-18T08:45:36;1.10;;;0.70;;
64936;SDS011;51452;47.698;19.050;2023-02-18T08:48:03;1.00;;;0.70;;
64936;SDS011;51452;47.698;19.050;2023-02-18T08:50:29;1.10;;;0.63;;
64936;SDS011;51452;47.698;19.050;2023-02-18T08:52:55;1.48;;;0.85;;
64936;SDS011;51452;47.698;19.050;2023-02-18T08:55:21;1.27;;;0.73;;
64936;SDS011;51452;47.698;19.050;2023-02-18T08:57:48;1.52;;;0.70;;
64936;SDS011;51452;47.698;19.050;2023-02-18T09:00:14;0.73;;;0.50;;
64936;SDS011;51452;47.698;19.050;2023-02-18T09:02:41;1.05;;;0.70;;
64936;SDS011;51452;47.698;19.050;2023-02-18T09:05:06;1.92;;;0.90;;
64936;SDS011;51452;47.698;19.050;2023-02-18T09:07:33;0.93;;;0.70;;
64936;SDS011;51452;47.698;19.050;2023-02-18T09:09:59;1.02;;;0.68;;
64936;SDS011;51452;47.698;19.050;2023-02-18T09:12:25;1.23;;;0.68;;
64936;SDS011;51452;47.698;19.050;2023-02-18T09:14:50;1.27;;;0.70;;
64936;SDS011;51452;47.698;19.050;2023-02-18T09:17:15;1.20;;;0.60;;
64936;SDS011;51452;47.698;19.050;2023-02-18T09:19:44;0.85;;;0.63;;
64936;SDS011;51452;47.698;19.050;2023-02-18T09:22:09;1.10;;;0.75;;
64936;SDS011;51452;47.698;19.050;2023-02-18T09:24:38;1.75;;;0.90;;
64936;SDS011;51452;47.698;19.050;2023-02-18T09:27:05;0.68;;;0.57;;
64936;SDS011;51452;47.698;19.050;2023-02-18T09:29:31;1.00;;;0.70;;
64936;SDS011;51452;47.698;19.050;2023-02-18T09:32:00;0.70;;;0.50;;
64936;SDS011;51452;47.698;19.050;2023-02-18T09:34:26;1.60;;;0.80;;
64936;SDS011;51452;47.698;19.050;2023-02-18T09:36:51;1.92;;;0.60;;
64936;SDS011;51452;47.698;19.050;2023-02-18T09:39:17;0.77;;;0.50;;
64936;SDS011;51452;47.698;19.050;2023-02-18T09:41:50;1.50;;;0.90;;
64936;SDS011;51452;47.698;19.050;2023-02-18T09:47:01;1.95;;;0.80;;
64936;SDS011;51452;47.698;19.050;2023-02-18T09:49:30;2.40;;;1.50;;
64936;SDS011;51452;47.698;19.050;2023-02-18T09:52:02;1.02;;;0.60;;
64936;SDS011;51452;47.698;19.050;2023-02-18T09:54:35;2.03;;;1.30;;
64936;SDS011;51452;47.698;19.050;2023-02-18T09:57:01;4.63;;;2.03;;
64936;SDS011;51452;47.698;19.050;2023-02-18T09:59:27;4.05;;;2.67;;
64936;SDS011;51452;47.698;19.050;2023-02-18T10:01:54;1.75;;;0.90;;
64936;SDS011;51452;47.698;19.050;2023-02-18T10:04:22;5.95;;;2.78;;
64936;SDS011;51452;47.698;19.050;2023-02-18T10:06:54;1.40;;;0.80;;
64936;SDS011;51452;47.698;19.050;2023-02-18T10:11:54;4.43;;;1.52;;
64936;SDS011;51452;47.698;19.050;2023-02-18T10:14:22;1.60;;;0.60;;
64936;SDS011;51452;47.698;19.050;2023-02-18T10:16:49;1.85;;;0.85;;
64936;SDS011;51452;47.698;19.050;2023-02-18T10:22:05;0.70;;;0.60;;
64936;SDS011;51452;47.698;19.050;2023-02-18T10:26:58;3.03;;;0.70;;
64936;SDS011;51452;47.698;19.050;2023-02-18T10:29:24;1.27;;;0.70;;
64936;SDS011;51452;47.698;19.050;2023-02-18T10:45:37;1.42;;;0.93;;
64936;SDS011;51452;47.698;19.050;2023-02-18T10:48:31;3.30;;;1.30;;
64936;SDS011;51452;47.698;19.050;2023-02-18T10:50:57;1.20;;;0.70;;
64936;SDS011;51452;47.698;19.050;2023-02-18T10:53:30;1.60;;;0.90;;
64936;SDS011;51452;47.698;19.050;2023-02-18T10:55:59;1.15;;;0.80;;
64936;SDS011;51452;47.698;19.050;2023-02-18T11:00:56;2.05;;;0.88;;
64936;SDS011;51452;47.698;19.050;2023-02-18T11:03:22;1.83;;;0.80;;
64936;SDS011;51452;47.698;19.050;2023-02-18T11:05:51;1.23;;;0.75;;
64936;SDS011;51452;47.698;19.050;2023-02-18T11:08:21;1.45;;;0.93;;
64936;SDS011;51452;47.698;19.050;2023-02-18T11:10:49;1.17;;;0.80;;
64936;SDS011;51452;47.698;19.050;2023-02-18T11:13:25;0.85;;;0.57;;
64936;SDS011;51452;47.698;19.050;2023-02-18T11:15:57;1.13;;;0.70;;
64936;SDS011;51452;47.698;19.050;2023-02-18T11:18:36;1.52;;;0.75;;
64936;SDS011;51452;47.698;19.050;2023-02-18T11:21:03;2.38;;;1.00;;
64936;SDS011;51452;47.698;19.050;2023-02-18T11:23:52;1.10;;;0.75;;
64936;SDS011;51452;47.698;19.050;2023-02-18T11:26:32;1.35;;;0.75;;
64936;SDS011;51452;47.698;19.050;2023-02-18T11:29:00;2.63;;;1.25;;
64936;SDS011;51452;47.698;19.050;2023-02-18T11:31:42;1.10;;;0.80;;
64936;SDS011;51452;47.698;19.050;2023-02-18T11:34:17;2.10;;;0.80;;
64936;SDS011;51452;47.698;19.050;2023-02-18T11:36:46;2.65;;;0.80;;
64936;SDS011;51452;47.698;19.050;2023-02-18T11:41:55;1.40;;;0.85;;
64936;SDS011;51452;47.698;19.050;2023-02-18T11:46:55;1.95;;;0.82;;
64936;SDS011;51452;47.698;19.050;2023-02-18T11:49:44;1.08;;;0.75;;
64936;SDS011;51452;47.698;19.050;2023-02-18T11:52:33;1.60;;;1.20;;
64936;SDS011;51452;47.698;19.050;2023-02-18T11:54:59;1.80;;;1.15;;
64936;SDS011;51452;47.698;19.050;2023-02-18T11:57:37;5.50;;;1.40;;
64936;SDS011;51452;47.698;19.050;2023-02-18T12:00:18;1.70;;;1.13;;
64936;SDS011;51452;47.698;19.050;2023-02-18T12:02:47;2.75;;;1.20;;
64936;SDS011;51452;47.698;19.050;2023-02-18T12:05:15;4.20;;;1.73;;
64936;SDS011;51452;47.698;19.050;2023-02-18T12:07:47;2.30;;;0.98;;
64936;SDS011;51452;47.698;19.050;2023-02-18T12:10:24;1.83;;;1.00;;
64936;SDS011;51452;47.698;19.050;2023-02-18T12:15:26;3.15;;;1.35;;
64936;SDS011;51452;47.698;19.050;2023-02-18T12:20:44;1.92;;;1.30;;
64936;SDS011;51452;47.698;19.050;2023-02-18T12:28:23;1.90;;;1.45;;
64936;SDS011;51452;47.698;19.050;2023-02-18T12:45:27;1.48;;;1.10;;
64936;SDS011;51452;47.698;19.050;2023-02-18T12:50:43;1.67;;;1.00;;
64936;SDS011;51452;47.698;19.050;2023-02-18T13:14:29;1.20;;;0.90;;
64936;SDS011;51452;47.698;19.050;2023-02-18T13:17:04;1.40;;;0.80;;
64936;SDS011;51452;47.698;19.050;2023-02-18T13:19:44;2.60;;;1.10;;
64936;SDS011;51452;47.698;19.050;2023-02-18T13:22:14;1.77;;;0.90;;
64936;SDS011;51452;47.698;19.050;2023-02-18T13:24:43;1.30;;;0.90;;
64936;SDS011;51452;47.698;19.050;2023-02-18T13:35:38;0.90;;;0.70;;
64936;SDS011;51452;47.698;19.050;2023-02-18T13:41:04;0.93;;;0.70;;
64936;SDS011;51452;47.698;19.050;2023-02-18T13:43:31;0.85;;;0.63;;
64936;SDS011;51452;47.698;19.050;2023-02-18T13:46:08;1.13;;;0.60;;
64936;SDS011;51452;47.698;19.050;2023-02-18T13:57:10;1.40;;;0.80;;
64936;SDS011;51452;47.698;19.050;2023-02-18T14:02:07;1.15;;;0.63;;
64936;SDS011;51452;47.698;19.050;2023-02-18T14:09:57;1.13;;;0.60;;
64936;SDS011;51452;47.698;19.050;2023-02-18T14:12:40;0.85;;;0.50;;
64936;SDS011;51452;47.698;19.050;2023-02-18T14:20:48;1.00;;;0.60;;
64936;SDS011;51452;47.698;19.050;2023-02-18T14:25:51;1.10;;;0.60;;
64936;SDS011;51452;47.698;19.050;2023-02-18T14:33:29;0.77;;;0.70;;
64936;SDS011;51452;47.698;19.050;2023-02-18T14:41:27;1.30;;;0.70;;
64936;SDS011;51452;47.698;19.050;2023-02-18T14:44:19;1.35;;;0.80;;
64936;SDS011;51452;47.698;19.050;2023-02-18T14:49:48;0.80;;;0.65;;
64936;SDS011;51452;47.698;19.050;2023-02-18T14:54:46;1.58;;;0.80;;
64936;SDS011;51452;47.698;19.050;2023-02-18T14:57:13;1.30;;;0.82;;
64936;SDS011;51452;47.698;19.050;2023-02-18T14:59:42;1.25;;;0.75;;
64936;SDS011;51452;47.698;19.050;2023-02-18T15:04:47;0.95;;;0.57;;
64936;SDS011;51452;47.698;19.050;2023-02-18T15:07:17;1.33;;;0.80;;
64936;SDS011;51452;47.698;19.050;2023-02-18T15:09:48;1.35;;;0.60;;
64936;SDS011;51452;47.698;19.050;2023-02-18T15:12:17;1.20;;;0.70;;
64936;SDS011;51452;47.698;19.050;2023-02-18T15:14:46;1.38;;;0.70;;
64936;SDS011;51452;47.698;19.050;2023-02-18T15:17:15;1.42;;;0.80;;
64936;SDS011;51452;47.698;19.050;2023-02-18T15:19:50;0.90;;;0.60;;
64936;SDS011;51452;47.698;19.050;2023-02-18T15:22:24;0.88;;;0.50;;
64936;SDS011;51452;47.698;19.050;2023-02-18T15:24:55;1.27;;;0.80;;
64936;SDS011;51452;47.698;19.050;2023-02-18T15:29:57;1.17;;;0.68;;
64936;SDS011;51452;47.698;19.050;2023-02-18T15:32:39;0.98;;;0.70;;
64936;SDS011;51452;47.698;19.050;2023-02-18T15:35:13;1.40;;;0.60;;
64936;SDS011;51452;47.698;19.050;2023-02-18T15:37:43;0.80;;;0.60;;
64936;SDS011;51452;47.698;19.050;2023-02-18T15:40:16;0.95;;;0.70;;
64936;SDS011;51452;47.698;19.050;2023-02-18T15:42:45;1.75;;;0.80;;
64936;SDS011;51452;47.698;19.050;2023-02-18T15:45:15;0.68;;;0.60;;
64936;SDS011;51452;47.698;19.050;2023-02-18T15:48:18;1.38;;;0.80;;
64936;SDS011;51452;47.698;19.050;2023-02-18T15:51:12;1.95;;;0.60;;
64936;SDS011;51452;47.698;19.050;2023-02-18T15:53:41;1.35;;;0.70;;
64936;SDS011;51452;47.698;19.050;2023-02-18T15:56:09;1.25;;;0.80;;
64936;SDS011;51452;47.698;19.050;2023-02-18T15:58:40;1.58;;;0.70;;
64936;SDS011;51452;47.698;19.050;2023-02-18T16:01:06;1.05;;;0.70;;
64936;SDS011;51452;47.698;19.050;2023-02-18T16:03:57;1.45;;;0.60;;
64936;SDS011;51452;47.698;19.050;2023-02-18T16:06:27;1.35;;;0.70;;
64936;SDS011;51452;47.698;19.050;2023-02-18T16:09:01;2.20;;;0.60;;
64936;SDS011;51452;47.698;19.050;2023-02-18T16:11:44;0.93;;;0.60;;
64936;SDS011;51452;47.698;19.050;2023-02-18T16:14:26;1.55;;;0.93;;
64936;SDS011;51452;47.698;19.050;2023-02-18T16:17:16;2.10;;;1.00;;
64936;SDS011;51452;47.698;19.050;2023-02-18T16:19:54;1.75;;;0.90;;
64936;SDS011;51452;47.698;19.050;2023-02-18T16:27:46;1.92;;;0.80;;
64936;SDS011;51452;47.698;19.050;2023-02-18T16:30:16;1.48;;;0.90;;
64936;SDS011;51452;47.698;19.050;2023-02-18T16:32:49;2.28;;;1.35;;
64936;SDS011;51452;47.698;19.050;2023-02-18T16:35:16;2.17;;;1.30;;
64936;SDS011;51452;47.698;19.050;2023-02-18T16:37:42;3.33;;;0.98;;
64936;SDS011;51452;47.698;19.050;2023-02-18T16:42:54;1.65;;;1.10;;
64936;SDS011;51452;47.698;19.050;2023-02-18T16:45:23;1.30;;;0.70;;
64936;SDS011;51452;47.698;19.050;2023-02-18T16:47:56;2.90;;;1.10;;
64936;SDS011;51452;47.698;19.050;2023-02-18T16:50:24;7.10;;;3.28;;
64936;SDS011;51452;47.698;19.050;2023-02-18T16:52:52;12.05;;;6.53;;
64936;SDS011;51452;47.698;19.050;2023-02-18T16:55:23;10.32;;;5.60;;
64936;SDS011;51452;47.698;19.050;2023-02-18T16:57:51;11.80;;;5.22;;
64936;SDS011;51452;47.698;19.050;2023-02-18T17:00:17;10.18;;;6.00;;
64936;SDS011;51452;47.698;19.050;2023-02-18T17:02:44;14.43;;;7.65;;
64936;SDS011;51452;47.698;19.050;2023-02-18T17:05:16;15.65;;;7.70;;
64936;SDS011;51452;47.698;19.050;2023-02-18T17:07:47;18.20;;;9.85;;
64936;SDS011;51452;47.698;19.050;2023-02-18T17:10:13;27.15;;;13.18;;
64936;SDS011;51452;47.698;19.050;2023-02-18T17:12:39;26.88;;;13.00;;
64936;SDS011;51452;47.698;19.050;2023-02-18T17:17:47;29.00;;;14.43;;
64936;SDS011;51452;47.698;19.050;2023-02-18T17:20:13;29.75;;;15.23;;
64936;SDS011;51452;47.698;19.050;2023-02-18T17:22:40;28.50;;;14.13;;
64936;SDS011;51452;47.698;19.050;2023-02-18T17:25:10;30.80;;;14.32;;
64936;SDS011;51452;47.698;19.050;2023-02-18T17:27:39;30.20;;;14.85;;
64936;SDS011;51452;47.698;19.050;2023-02-18T17:30:04;28.23;;;14.05;;
64936;SDS011;51452;47.698;19.050;2023-02-18T17:32:30;27.90;;;14.20;;
64936;SDS011;51452;47.698;19.050;2023-02-18T17:34:56;28.55;;;14.57;;
64936;SDS011;51452;47.698;19.050;2023-02-18T17:37:22;30.55;;;15.18;;
64936;SDS011;51452;47.698;19.050;2023-02-18T17:39:48;28.45;;;14.63;;
64936;SDS011;51452;47.698;19.050;2023-02-18T17:42:13;33.38;;;15.52;;
64936;SDS011;51452;47.698;19.050;2023-02-18T17:44:41;29.67;;;15.20;;
64936;SDS011;51452;47.698;19.050;2023-02-18T17:47:06;26.90;;;13.52;;
64936;SDS011;51452;47.698;19.050;2023-02-18T17:49:32;27.35;;;14.20;;
64936;SDS011;51452;47.698;19.050;2023-02-18T17:51:58;27.58;;;11.27;;
64936;SDS011;51452;47.698;19.050;2023-02-18T17:54:25;19.52;;;10.63;;